This is the latest recevied weather packets stored in our database for station/object KD7DVD-1. If no packets are shown the sender has not sent any weather packets the latest 10 day(s).
| Time | Temp. | Humidity | Pressure | Rain* | Wind** | Luminosity | Snow |
|---|---|---|---|---|---|---|---|
| 1777231817 | 16.67° C | 38% | 1009.2 hPa | 0 mm | - | - | - |
| 1777230017 | 16.11° C | 42% | 1009.4 hPa | 0 mm | - | - | - |
| 1777228217 | 15° C | 46% | 1009.4 hPa | 0 mm | - | - | - |
| 1777226416 | 13.89° C | 49% | 1009.4 hPa | 0 mm | - | - | - |
| 1777224617 | 12.78° C | 52% | 1009.4 hPa | 0 mm | - | - | - |
| 1777222817 | 12.22° C | 55% | 1009.4 hPa | 0 mm | - | - | - |
| 1777221017 | 10.56° C | 60% | 1009.5 hPa | 0 mm | - | - | - |
| 1777219216 | 9.44° C | 66% | 1009.4 hPa | 0 mm | - | - | - |
| 1777217416 | 8.89° C | 70% | 1009.6 hPa | 0 mm | - | - | - |
| 1777215616 | 7.78° C | 78% | 1009.5 hPa | 0 mm | - | - | - |
| 1777213816 | 6.11° C | 83% | 1009.2 hPa | 0 mm | - | - | - |
| 1777212016 | 4.44° C | 88% | 1009.1 hPa | 0 mm | - | - | - |
| 1777210216 | 3.89° C | 88% | 1008.9 hPa | 0 mm | - | - | - |
| 1777208416 | 3.89° C | 87% | 1008.7 hPa | 0 mm | - | - | - |
| 1777206616 | 4.44° C | 86% | 1008.6 hPa | 0 mm | - | - | - |
| 1777204816 | 4.44° C | 85% | 1008.6 hPa | 0 mm | - | - | - |
| 1777203016 | 5° C | 84% | 1008.7 hPa | 0 mm | - | - | - |
| 1777201215 | 5° C | 83% | 1008.6 hPa | 0 mm | - | - | - |
| 1777199416 | 5.56° C | 81% | 1008.6 hPa | 0 mm | - | - | - |
| 1777197616 | 5.56° C | 80% | 1008.4 hPa | 0 mm | - | - | - |
| 1777195817 | 6.11° C | 77% | 1008.5 hPa | 0 mm | - | - | - |
| 1777194017 | 6.67° C | 73% | 1008.7 hPa | 0 mm | - | - | - |
| 1777192217 | 7.22° C | 72% | 1008.7 hPa | 0 mm | - | - | - |
| 1777190418 | 7.78° C | 70% | 1008.7 hPa | 0 mm | - | - | - |
| 1777188617 | 7.78° C | 69% | 1008.5 hPa | 0 mm | - | - | - |
* Rain latest hour (hover to see other rain measurements)
** Current wind speed in m/s (hover to see current wind gust speed)